Distant Drummer — MPSD7 — position and weather

sailwx.info

Track history (hours):
 
Tides and Currents Weather Stations Pressure Air Temp Water Temp Dewpoint Dewpoint Depression Visibility Wind Speed Wind Dir Waves Ship Positions

Distant Drummer

Last reported at 2017-Oct-16 21:23 UTC. Time now 2017-Oct-17 03:57 UTC.
Position N 33°38' W 118°03'.

Length 14 m.

Type: Sailing vessel. MMSI: 235040169.

Date/timePositionNaut miles runAvg speedWind from/ knotsBaromVisibWave heightAir tempDewpointWater temp
2017-Oct-16 21:23N 33°38' W 118°03'3 5.1
2017-Oct-16 20:53N 33°39' W 118°05'1 3.1
2017-Oct-16 20:24N 33°41' W 118°06'2 4.9
2017-Oct-16 19:59N 33°43' W 118°07'2 3.0
2017-Oct-16 19:19N 33°45' W 118°08'0 0.0
2017-Oct-15 22:03N 33°44' W 118°08'0 1.9
2017-Oct-15 21:58N 33°45' W 118°08'2 4.4
2017-Oct-15 21:27N 33°44' W 118°11'2 4.6
2017-Oct-15 20:55N 33°43' W 118°13'2 5.2
2017-Oct-15 20:28N 33°43' W 118°16'1 0.0
2017-Oct-15 00:08N 33°43' W 118°17'0 0.0
2017-Oct-14 23:56N 33°43' W 118°17'0 0.0
2017-Oct-14 23:26N 33°43' W 118°17'0 0.0
2017-Oct-14 22:56N 33°43' W 118°17'  
2017-Oct-10 23:57N 33°43' W 118°17'0 0.0
2017-Oct-10 23:30N 33°43' W 118°17'0 0.0
2017-Oct-10 23:00N 33°43' W 118°17'0 0.0
2017-Oct-10 16:54N 33°43' W 118°17'0 0.5
2017-Oct-10 16:28N 33°43' W 118°17'0 0.0
2017-Oct-10 00:53N 33°43' W 118°17'0 0.0
2017-Oct-10 00:29N 33°43' W 118°17'0 0.0
2017-Oct-09 23:59N 33°43' W 118°17'0 0.0
2017-Oct-09 19:51N 33°43' W 118°17'0 0.0
2017-Oct-09 19:27N 33°43' W 118°17'0 0.0
2017-Oct-09 18:57N 33°43' W 118°17'0 0.0
2017-Oct-09 17:30N 33°43' W 118°17'0 0.0
2017-Oct-09 16:48N 33°43' W 118°17'0 0.0
2017-Oct-09 02:19N 33°43' W 118°17'0 0.0
2017-Oct-09 01:55N 33°43' W 118°17'0 0.0
2017-Oct-08 23:31N 33°43' W 118°17'0 0.0
2017-Oct-08 23:25N 33°43' W 118°17'0 0.0
2017-Oct-08 22:52N 33°43' W 118°17'0 0.0
2017-Oct-08 19:32N 33°43' W 118°17'0 0.0
2017-Oct-08 19:17N 33°43' W 118°17'  
Track history (hours):
 
Tides and Currents Weather Stations Pressure Air Temp Water Temp Dewpoint Dewpoint Depression Visibility Wind Speed Wind Dir Waves Ship Positions

Distant Drummer

Last reported at 2017-Oct-16 21:23 UTC. Time now 2017-Oct-17 03:57 UTC.
Position N 33°38' W 118°03'.

Length 14 m.

Type: Sailing vessel. MMSI: 235040169.

Date/timePositionNaut miles runAvg speedWind from/ knotsBaromVisibWave heightAir tempDewpointWater temp
2017-Oct-16 21:23N 33°38' W 118°03'3 5.1
2017-Oct-16 20:53N 33°39' W 118°05'1 3.1
2017-Oct-16 20:24N 33°41' W 118°06'2 4.9
2017-Oct-16 19:59N 33°43' W 118°07'2 3.0
2017-Oct-16 19:19N 33°45' W 118°08'0 0.0
2017-Oct-15 22:03N 33°44' W 118°08'0 1.9
2017-Oct-15 21:58N 33°45' W 118°08'2 4.4
2017-Oct-15 21:27N 33°44' W 118°11'2 4.6
2017-Oct-15 20:55N 33°43' W 118°13'2 5.2
2017-Oct-15 20:28N 33°43' W 118°16'1 0.0
2017-Oct-15 00:08N 33°43' W 118°17'0 0.0
2017-Oct-14 23:56N 33°43' W 118°17'0 0.0
2017-Oct-14 23:26N 33°43' W 118°17'0 0.0
2017-Oct-14 22:56N 33°43' W 118°17'  
2017-Oct-10 23:57N 33°43' W 118°17'0 0.0
2017-Oct-10 23:30N 33°43' W 118°17'0 0.0
2017-Oct-10 23:00N 33°43' W 118°17'0 0.0
2017-Oct-10 16:54N 33°43' W 118°17'0 0.5
2017-Oct-10 16:28N 33°43' W 118°17'0 0.0
2017-Oct-10 00:53N 33°43' W 118°17'0 0.0
2017-Oct-10 00:29N 33°43' W 118°17'0 0.0
2017-Oct-09 23:59N 33°43' W 118°17'0 0.0
2017-Oct-09 19:51N 33°43' W 118°17'0 0.0
2017-Oct-09 19:27N 33°43' W 118°17'0 0.0
2017-Oct-09 18:57N 33°43' W 118°17'0 0.0
2017-Oct-09 17:30N 33°43' W 118°17'0 0.0
2017-Oct-09 16:48N 33°43' W 118°17'0 0.0
2017-Oct-09 02:19N 33°43' W 118°17'0 0.0
2017-Oct-09 01:55N 33°43' W 118°17'0 0.0
2017-Oct-08 23:31N 33°43' W 118°17'0 0.0
2017-Oct-08 23:25N 33°43' W 118°17'0 0.0
2017-Oct-08 22:52N 33°43' W 118°17'0 0.0
2017-Oct-08 19:32N 33°43' W 118°17'0 0.0
2017-Oct-08 19:17N 33°43' W 118°17'  

Dump ship's entire track history